sensor_id;sensor_type;location;lat;lon;timestamp;temperature;humidity
15455;DHT22;21057;51.024;7.540;2022-10-22T00:00:04;14.40;99.90
15455;DHT22;21057;51.024;7.540;2022-10-22T00:02:31;14.40;99.90
15455;DHT22;21057;51.024;7.540;2022-10-22T00:04:58;14.30;99.90
15455;DHT22;21057;51.024;7.540;2022-10-22T00:07:25;14.20;99.90
15455;DHT22;21057;51.024;7.540;2022-10-22T00:09:51;14.10;99.90
15455;DHT22;21057;51.024;7.540;2022-10-22T00:12:20;14.10;99.90
15455;DHT22;21057;51.024;7.540;2022-10-22T00:14:47;14.10;99.90
15455;DHT22;21057;51.024;7.540;2022-10-22T00:17:15;14.20;99.90
15455;DHT22;21057;51.024;7.540;2022-10-22T00:19:42;14.30;99.90
15455;DHT22;21057;51.024;7.540;2022-10-22T00:22:09;14.30;99.90
15455;DHT22;21057;51.024;7.540;2022-10-22T00:24:37;14.30;99.90
15455;DHT22;21057;51.024;7.540;2022-10-22T00:27:05;14.30;99.90
15455;DHT22;21057;51.024;7.540;2022-10-22T00:29:34;14.20;99.90
15455;DHT22;21057;51.024;7.540;2022-10-22T00:32:02;14.20;99.90
15455;DHT22;21057;51.024;7.540;2022-10-22T00:34:29;14.20;99.90
15455;DHT22;21057;51.024;7.540;2022-10-22T00:36:56;14.20;99.90
15455;DHT22;21057;51.024;7.540;2022-10-22T00:39:24;14.20;99.90
15455;DHT22;21057;51.024;7.540;2022-10-22T00:41:52;14.20;99.90
15455;DHT22;21057;51.024;7.540;2022-10-22T00:45:00;14.20;99.90
15455;DHT22;21057;51.024;7.540;2022-10-22T00:47:31;14.10;99.90
15455;DHT22;21057;51.024;7.540;2022-10-22T00:49:59;14.10;99.90
15455;DHT22;21057;51.024;7.540;2022-10-22T00:52:27;14.10;99.90
15455;DHT22;21057;51.024;7.540;2022-10-22T00:54:55;14.20;99.90
15455;DHT22;21057;51.024;7.540;2022-10-22T00:57:22;14.20;99.90
15455;DHT22;21057;51.024;7.540;2022-10-22T00:59:49;14.20;99.90
15455;DHT22;21057;51.024;7.540;2022-10-22T01:02:18;14.30;99.90
15455;DHT22;21057;51.024;7.540;2022-10-22T01:04:44;14.20;99.90
15455;DHT22;21057;51.024;7.540;2022-10-22T01:07:15;14.10;99.90
15455;DHT22;21057;51.024;7.540;2022-10-22T01:09:47;14.10;99.90
15455;DHT22;21057;51.024;7.540;2022-10-22T01:12:21;14.20;99.90
15455;DHT22;21057;51.024;7.540;2022-10-22T01:15:02;14.40;99.90
15455;DHT22;21057;51.024;7.540;2022-10-22T01:17:37;14.50;99.90
15455;DHT22;21057;51.024;7.540;2022-10-22T01:20:15;14.60;99.90
15455;DHT22;21057;51.024;7.540;2022-10-22T01:22:54;14.70;99.90
15455;DHT22;21057;51.024;7.540;2022-10-22T01:25:30;14.60;99.90
15455;DHT22;21057;51.024;7.540;2022-10-22T01:28:08;14.50;99.90
15455;DHT22;21057;51.024;7.540;2022-10-22T01:30:41;14.40;99.90
15455;DHT22;21057;51.024;7.540;2022-10-22T01:33:11;14.50;99.90
15455;DHT22;21057;51.024;7.540;2022-10-22T01:35:41;14.70;99.90
15455;DHT22;21057;51.024;7.540;2022-10-22T01:38:11;14.70;99.90
15455;DHT22;21057;51.024;7.540;2022-10-22T01:40:40;14.70;99.90
15455;DHT22;21057;51.024;7.540;2022-10-22T01:43:09;14.70;99.90
15455;DHT22;21057;51.024;7.540;2022-10-22T01:45:41;14.70;99.90
15455;DHT22;21057;51.024;7.540;2022-10-22T01:48:21;14.60;99.90
15455;DHT22;21057;51.024;7.540;2022-10-22T01:51:27;14.70;99.90
15455;DHT22;21057;51.024;7.540;2022-10-22T01:54:00;14.70;99.90
15455;DHT22;21057;51.024;7.540;2022-10-22T01:56:39;14.60;99.90
15455;DHT22;21057;51.024;7.540;2022-10-22T01:59:16;14.60;99.90
15455;DHT22;21057;51.024;7.540;2022-10-22T02:01:56;14.70;99.90
15455;DHT22;21057;51.024;7.540;2022-10-22T02:04:27;14.60;99.90
15455;DHT22;21057;51.024;7.540;2022-10-22T02:06:58;14.60;99.90
15455;DHT22;21057;51.024;7.540;2022-10-22T02:09:28;14.50;99.90
15455;DHT22;21057;51.024;7.540;2022-10-22T02:11:57;14.40;99.90
15455;DHT22;21057;51.024;7.540;2022-10-22T02:14:26;14.30;99.90
15455;DHT22;21057;51.024;7.540;2022-10-22T02:16:57;14.30;99.90
15455;DHT22;21057;51.024;7.540;2022-10-22T02:19:26;14.40;99.90
15455;DHT22;21057;51.024;7.540;2022-10-22T02:21:54;14.50;99.90
15455;DHT22;21057;51.024;7.540;2022-10-22T02:24:21;14.50;99.90
15455;DHT22;21057;51.024;7.540;2022-10-22T02:26:54;14.60;99.90
15455;DHT22;21057;51.024;7.540;2022-10-22T02:29:26;14.50;99.90
15455;DHT22;21057;51.024;7.540;2022-10-22T02:31:57;14.50;99.90
15455;DHT22;21057;51.024;7.540;2022-10-22T02:34:29;14.40;99.90
15455;DHT22;21057;51.024;7.540;2022-10-22T02:36:57;14.40;99.90
15455;DHT22;21057;51.024;7.540;2022-10-22T02:39:25;14.40;99.90
15455;DHT22;21057;51.024;7.540;2022-10-22T02:41:52;14.30;99.90
15455;DHT22;21057;51.024;7.540;2022-10-22T02:44:21;14.30;99.90
15455;DHT22;21057;51.024;7.540;2022-10-22T02:46:47;14.30;99.90
15455;DHT22;21057;51.024;7.540;2022-10-22T02:49:16;14.30;99.90
15455;DHT22;21057;51.024;7.540;2022-10-22T02:51:42;14.20;99.90
15455;DHT22;21057;51.024;7.540;2022-10-22T02:54:09;14.30;99.90
15455;DHT22;21057;51.024;7.540;2022-10-22T02:56:36;14.20;99.90
15455;DHT22;21057;51.024;7.540;2022-10-22T02:59:03;14.30;99.90
15455;DHT22;21057;51.024;7.540;2022-10-22T03:01:30;14.30;99.90
15455;DHT22;21057;51.024;7.540;2022-10-22T03:03:57;14.40;99.90
15455;DHT22;21057;51.024;7.540;2022-10-22T03:06:25;14.40;99.90
15455;DHT22;21057;51.024;7.540;2022-10-22T03:08:52;14.40;99.90
15455;DHT22;21057;51.024;7.540;2022-10-22T03:11:19;14.30;99.90
15455;DHT22;21057;51.024;7.540;2022-10-22T03:13:45;14.30;99.90
15455;DHT22;21057;51.024;7.540;2022-10-22T03:16:12;14.30;99.90
15455;DHT22;21057;51.024;7.540;2022-10-22T03:18:39;14.30;99.90
15455;DHT22;21057;51.024;7.540;2022-10-22T03:21:10;14.30;99.90
15455;DHT22;21057;51.024;7.540;2022-10-22T03:23:41;14.30;99.90
15455;DHT22;21057;51.024;7.540;2022-10-22T03:26:09;14.30;99.90
15455;DHT22;21057;51.024;7.540;2022-10-22T03:28:39;14.30;99.90
15455;DHT22;21057;51.024;7.540;2022-10-22T03:31:06;14.50;99.90
15455;DHT22;21057;51.024;7.540;2022-10-22T03:33:33;14.60;99.90
15455;DHT22;21057;51.024;7.540;2022-10-22T03:36:00;14.80;99.90
15455;DHT22;21057;51.024;7.540;2022-10-22T03:38:27;14.80;99.90
15455;DHT22;21057;51.024;7.540;2022-10-22T03:40:56;14.80;99.90
15455;DHT22;21057;51.024;7.540;2022-10-22T03:43:23;14.90;99.90
15455;DHT22;21057;51.024;7.540;2022-10-22T03:45:50;14.90;99.90
15455;DHT22;21057;51.024;7.540;2022-10-22T03:48:17;14.90;99.90
15455;DHT22;21057;51.024;7.540;2022-10-22T03:50:44;15.00;99.90
15455;DHT22;21057;51.024;7.540;2022-10-22T03:53:11;14.90;99.90
15455;DHT22;21057;51.024;7.540;2022-10-22T03:55:39;15.00;99.90
15455;DHT22;21057;51.024;7.540;2022-10-22T03:58:08;15.00;99.90
15455;DHT22;21057;51.024;7.540;2022-10-22T04:00:35;14.90;99.90
15455;DHT22;21057;51.024;7.540;2022-10-22T04:03:02;14.80;99.90
15455;DHT22;21057;51.024;7.540;2022-10-22T04:05:30;14.80;99.90
15455;DHT22;21057;51.024;7.540;2022-10-22T04:07:57;14.80;99.90
15455;DHT22;21057;51.024;7.540;2022-10-22T04:10:24;14.80;99.90
15455;DHT22;21057;51.024;7.540;2022-10-22T04:12:50;14.90;99.90
15455;DHT22;21057;51.024;7.540;2022-10-22T04:15:19;14.90;99.90
15455;DHT22;21057;51.024;7.540;2022-10-22T04:17:45;14.80;99.90
15455;DHT22;21057;51.024;7.540;2022-10-22T04:20:12;14.70;99.90
15455;DHT22;21057;51.024;7.540;2022-10-22T04:22:39;14.70;99.90
15455;DHT22;21057;51.024;7.540;2022-10-22T04:25:06;14.70;99.90
15455;DHT22;21057;51.024;7.540;2022-10-22T04:27:34;14.60;99.90
15455;DHT22;21057;51.024;7.540;2022-10-22T04:30:01;14.70;99.90
15455;DHT22;21057;51.024;7.540;2022-10-22T04:32:29;14.60;99.90
15455;DHT22;21057;51.024;7.540;2022-10-22T04:34:56;14.60;99.90
15455;DHT22;21057;51.024;7.540;2022-10-22T04:37:23;14.60;99.90
15455;DHT22;21057;51.024;7.540;2022-10-22T04:39:50;14.70;99.90
15455;DHT22;21057;51.024;7.540;2022-10-22T04:42:17;14.70;99.90
15455;DHT22;21057;51.024;7.540;2022-10-22T04:44:44;14.70;99.90
15455;DHT22;21057;51.024;7.540;2022-10-22T04:47:11;14.70;99.90
15455;DHT22;21057;51.024;7.540;2022-10-22T04:49:39;14.70;99.90
15455;DHT22;21057;51.024;7.540;2022-10-22T04:52:06;14.70;99.90
15455;DHT22;21057;51.024;7.540;2022-10-22T04:54:33;14.60;99.90
15455;DHT22;21057;51.024;7.540;2022-10-22T04:56:59;14.60;99.90
15455;DHT22;21057;51.024;7.540;2022-10-22T04:59:26;14.60;99.90
15455;DHT22;21057;51.024;7.540;2022-10-22T05:01:53;14.60;99.90
15455;DHT22;21057;51.024;7.540;2022-10-22T05:04:20;14.60;99.90
15455;DHT22;21057;51.024;7.540;2022-10-22T05:06:48;14.50;99.90
15455;DHT22;21057;51.024;7.540;2022-10-22T05:09:17;14.50;99.90
15455;DHT22;21057;51.024;7.540;2022-10-22T05:11:47;14.40;99.90
15455;DHT22;21057;51.024;7.540;2022-10-22T05:14:15;14.50;99.90
15455;DHT22;21057;51.024;7.540;2022-10-22T05:16:42;14.40;99.90
15455;DHT22;21057;51.024;7.540;2022-10-22T05:19:14;14.40;99.90
15455;DHT22;21057;51.024;7.540;2022-10-22T05:21:41;14.40;99.90
15455;DHT22;21057;51.024;7.540;2022-10-22T05:24:09;14.40;99.90
15455;DHT22;21057;51.024;7.540;2022-10-22T05:26:36;14.40;99.90
15455;DHT22;21057;51.024;7.540;2022-10-22T05:29:03;14.40;99.90
15455;DHT22;21057;51.024;7.540;2022-10-22T05:31:30;14.50;99.90
15455;DHT22;21057;51.024;7.540;2022-10-22T05:33:57;14.60;99.90
15455;DHT22;21057;51.024;7.540;2022-10-22T05:36:24;14.70;99.90
15455;DHT22;21057;51.024;7.540;2022-10-22T05:38:51;14.60;99.90
15455;DHT22;21057;51.024;7.540;2022-10-22T05:41:21;14.70;99.90
15455;DHT22;21057;51.024;7.540;2022-10-22T05:43:48;14.70;99.90
15455;DHT22;21057;51.024;7.540;2022-10-22T05:46:17;14.50;99.90
15455;DHT22;21057;51.024;7.540;2022-10-22T05:48:48;14.70;99.90
15455;DHT22;21057;51.024;7.540;2022-10-22T05:51:15;14.60;99.90
15455;DHT22;21057;51.024;7.540;2022-10-22T05:53:42;14.70;99.90
15455;DHT22;21057;51.024;7.540;2022-10-22T05:56:11;14.70;99.90
15455;DHT22;21057;51.024;7.540;2022-10-22T05:58:40;14.60;99.90
15455;DHT22;21057;51.024;7.540;2022-10-22T06:01:10;14.50;99.90
15455;DHT22;21057;51.024;7.540;2022-10-22T06:03:37;14.40;99.90
15455;DHT22;21057;51.024;7.540;2022-10-22T06:06:13;14.30;99.90
15455;DHT22;21057;51.024;7.540;2022-10-22T06:08:41;14.30;99.90
15455;DHT22;21057;51.024;7.540;2022-10-22T06:11:07;14.20;99.90
15455;DHT22;21057;51.024;7.540;2022-10-22T06:13:34;14.10;99.90
15455;DHT22;21057;51.024;7.540;2022-10-22T06:16:03;13.90;99.90
15455;DHT22;21057;51.024;7.540;2022-10-22T06:18:30;13.90;99.90
15455;DHT22;21057;51.024;7.540;2022-10-22T06:21:03;13.90;99.90
15455;DHT22;21057;51.024;7.540;2022-10-22T06:23:30;13.90;99.90
15455;DHT22;21057;51.024;7.540;2022-10-22T06:25:57;13.80;99.90
15455;DHT22;21057;51.024;7.540;2022-10-22T06:28:24;13.80;99.90
15455;DHT22;21057;51.024;7.540;2022-10-22T06:30:51;13.90;99.90
15455;DHT22;21057;51.024;7.540;2022-10-22T06:33:19;13.90;99.90
15455;DHT22;21057;51.024;7.540;2022-10-22T06:35:46;14.10;99.90
15455;DHT22;21057;51.024;7.540;2022-10-22T06:38:13;14.00;99.90
15455;DHT22;21057;51.024;7.540;2022-10-22T06:40:40;14.10;99.90
15455;DHT22;21057;51.024;7.540;2022-10-22T06:43:08;14.20;99.90
15455;DHT22;21057;51.024;7.540;2022-10-22T06:45:35;14.30;99.90
15455;DHT22;21057;51.024;7.540;2022-10-22T06:48:02;14.40;99.90
15455;DHT22;21057;51.024;7.540;2022-10-22T06:50:30;14.30;99.90
15455;DHT22;21057;51.024;7.540;2022-10-22T06:52:59;14.40;99.90
15455;DHT22;21057;51.024;7.540;2022-10-22T06:55:26;14.30;99.90
15455;DHT22;21057;51.024;7.540;2022-10-22T06:57:54;14.30;99.90
15455;DHT22;21057;51.024;7.540;2022-10-22T07:00:20;14.40;99.90
15455;DHT22;21057;51.024;7.540;2022-10-22T07:02:50;14.40;99.90
15455;DHT22;21057;51.024;7.540;2022-10-22T07:05:18;14.40;99.90
15455;DHT22;21057;51.024;7.540;2022-10-22T07:07:46;14.40;99.90
15455;DHT22;21057;51.024;7.540;2022-10-22T07:10:13;14.30;99.90
15455;DHT22;21057;51.024;7.540;2022-10-22T07:12:40;14.40;99.90
15455;DHT22;21057;51.024;7.540;2022-10-22T07:15:08;14.50;99.90
15455;DHT22;21057;51.024;7.540;2022-10-22T07:17:34;14.50;99.90
15455;DHT22;21057;51.024;7.540;2022-10-22T07:20:02;14.60;99.90
15455;DHT22;21057;51.024;7.540;2022-10-22T07:22:29;14.70;99.90
15455;DHT22;21057;51.024;7.540;2022-10-22T07:24:57;14.80;99.90
15455;DHT22;21057;51.024;7.540;2022-10-22T07:27:24;15.00;99.90
15455;DHT22;21057;51.024;7.540;2022-10-22T07:29:51;15.20;99.90
15455;DHT22;21057;51.024;7.540;2022-10-22T07:32:18;15.20;99.90
15455;DHT22;21057;51.024;7.540;2022-10-22T07:34:44;15.20;99.90
15455;DHT22;21057;51.024;7.540;2022-10-22T07:37:11;15.20;99.90
15455;DHT22;21057;51.024;7.540;2022-10-22T07:39:38;15.20;99.90
15455;DHT22;21057;51.024;7.540;2022-10-22T07:42:06;15.30;99.90
15455;DHT22;21057;51.024;7.540;2022-10-22T07:44:33;15.10;99.90
15455;DHT22;21057;51.024;7.540;2022-10-22T07:47:00;15.10;99.90
15455;DHT22;21057;51.024;7.540;2022-10-22T07:49:27;15.00;99.90
15455;DHT22;21057;51.024;7.540;2022-10-22T07:51:54;15.00;99.90
15455;DHT22;21057;51.024;7.540;2022-10-22T07:54:21;15.00;99.90
15455;DHT22;21057;51.024;7.540;2022-10-22T07:56:48;15.10;99.90
15455;DHT22;21057;51.024;7.540;2022-10-22T07:59:16;15.20;99.90
15455;DHT22;21057;51.024;7.540;2022-10-22T08:01:43;15.20;99.90
15455;DHT22;21057;51.024;7.540;2022-10-22T08:04:11;15.30;99.90
15455;DHT22;21057;51.024;7.540;2022-10-22T08:06:38;15.30;99.90
15455;DHT22;21057;51.024;7.540;2022-10-22T08:09:05;15.40;99.90
15455;DHT22;21057;51.024;7.540;2022-10-22T08:11:31;15.40;99.90
15455;DHT22;21057;51.024;7.540;2022-10-22T08:13:59;15.40;99.90
15455;DHT22;21057;51.024;7.540;2022-10-22T08:16:29;15.30;99.90
15455;DHT22;21057;51.024;7.540;2022-10-22T08:18:55;15.40;99.90
15455;DHT22;21057;51.024;7.540;2022-10-22T08:21:22;15.50;99.90
15455;DHT22;21057;51.024;7.540;2022-10-22T08:23:49;15.40;99.90
15455;DHT22;21057;51.024;7.540;2022-10-22T08:26:16;15.50;99.90
15455;DHT22;21057;51.024;7.540;2022-10-22T08:28:43;15.60;99.90
15455;DHT22;21057;51.024;7.540;2022-10-22T08:31:10;15.70;99.90
15455;DHT22;21057;51.024;7.540;2022-10-22T08:33:38;15.70;99.90
15455;DHT22;21057;51.024;7.540;2022-10-22T08:36:06;15.90;99.90
15455;DHT22;21057;51.024;7.540;2022-10-22T08:38:33;15.90;99.90
15455;DHT22;21057;51.024;7.540;2022-10-22T08:41:07;15.90;99.90
15455;DHT22;21057;51.024;7.540;2022-10-22T08:44:00;15.90;99.90
15455;DHT22;21057;51.024;7.540;2022-10-22T08:46:44;16.20;99.90
15455;DHT22;21057;51.024;7.540;2022-10-22T08:49:19;16.40;99.90
15455;DHT22;21057;51.024;7.540;2022-10-22T08:51:46;16.60;99.90
15455;DHT22;21057;51.024;7.540;2022-10-22T08:54:21;16.60;99.90
15455;DHT22;21057;51.024;7.540;2022-10-22T08:56:59;16.80;99.90
15455;DHT22;21057;51.024;7.540;2022-10-22T08:59:36;17.10;99.90
15455;DHT22;21057;51.024;7.540;2022-10-22T09:02:18;17.20;99.90
15455;DHT22;21057;51.024;7.540;2022-10-22T09:04:56;17.00;99.90
15455;DHT22;21057;51.024;7.540;2022-10-22T09:07:25;17.10;99.90
15455;DHT22;21057;51.024;7.540;2022-10-22T09:09:53;16.80;99.90
15455;DHT22;21057;51.024;7.540;2022-10-22T09:12:24;16.70;99.90
15455;DHT22;21057;51.024;7.540;2022-10-22T09:14:53;16.70;99.90
15455;DHT22;21057;51.024;7.540;2022-10-22T09:17:24;16.70;99.90
15455;DHT22;21057;51.024;7.540;2022-10-22T09:20:03;16.90;99.90
15455;DHT22;21057;51.024;7.540;2022-10-22T09:22:37;17.00;99.90
15455;DHT22;21057;51.024;7.540;2022-10-22T09:25:16;17.10;99.90
15455;DHT22;21057;51.024;7.540;2022-10-22T09:27:45;17.10;99.90
15455;DHT22;21057;51.024;7.540;2022-10-22T09:30:15;17.00;99.90
15455;DHT22;21057;51.024;7.540;2022-10-22T09:32:42;16.80;99.90
15455;DHT22;21057;51.024;7.540;2022-10-22T09:35:12;16.60;99.90
15455;DHT22;21057;51.024;7.540;2022-10-22T09:37:47;16.50;99.90
15455;DHT22;21057;51.024;7.540;2022-10-22T09:40:15;16.50;99.90
15455;DHT22;21057;51.024;7.540;2022-10-22T09:42:43;16.40;99.90
15455;DHT22;21057;51.024;7.540;2022-10-22T09:45:17;16.30;99.90
15455;DHT22;21057;51.024;7.540;2022-10-22T09:47:45;16.20;99.90
15455;DHT22;21057;51.024;7.540;2022-10-22T09:50:23;16.30;99.90
15455;DHT22;21057;51.024;7.540;2022-10-22T09:52:58;16.30;99.90
15455;DHT22;21057;51.024;7.540;2022-10-22T09:55:26;16.50;99.90
15455;DHT22;21057;51.024;7.540;2022-10-22T09:57:56;16.70;99.90
15455;DHT22;21057;51.024;7.540;2022-10-22T10:00:23;16.90;99.90
15455;DHT22;21057;51.024;7.540;2022-10-22T10:02:53;17.00;99.90
15455;DHT22;21057;51.024;7.540;2022-10-22T10:05:27;16.90;99.90
15455;DHT22;21057;51.024;7.540;2022-10-22T10:07:54;16.90;99.90
15455;DHT22;21057;51.024;7.540;2022-10-22T10:10:33;16.90;99.90
15455;DHT22;21057;51.024;7.540;2022-10-22T10:13:16;16.90;99.90
15455;DHT22;21057;51.024;7.540;2022-10-22T10:15:52;17.00;99.90
15455;DHT22;21057;51.024;7.540;2022-10-22T10:18:30;17.00;99.90
15455;DHT22;21057;51.024;7.540;2022-10-22T10:21:05;17.00;99.90
15455;DHT22;21057;51.024;7.540;2022-10-22T10:23:42;17.00;99.90
15455;DHT22;21057;51.024;7.540;2022-10-22T10:26:16;17.10;99.90
15455;DHT22;21057;51.024;7.540;2022-10-22T10:28:54;17.00;99.90
15455;DHT22;21057;51.024;7.540;2022-10-22T10:31:33;17.10;99.90
15455;DHT22;21057;51.024;7.540;2022-10-22T10:34:13;17.20;99.90
15455;DHT22;21057;51.024;7.540;2022-10-22T10:36:52;17.30;99.90
15455;DHT22;21057;51.024;7.540;2022-10-22T10:39:29;17.20;99.90
15455;DHT22;21057;51.024;7.540;2022-10-22T10:42:05;17.10;99.90
15455;DHT22;21057;51.024;7.540;2022-10-22T10:44:58;17.20;99.90
15455;DHT22;21057;51.024;7.540;2022-10-22T10:47:45;17.10;99.90
15455;DHT22;21057;51.024;7.540;2022-10-22T10:50:22;17.10;99.90
15455;DHT22;21057;51.024;7.540;2022-10-22T10:52:59;17.10;99.90
15455;DHT22;21057;51.024;7.540;2022-10-22T10:55:31;17.10;99.90
15455;DHT22;21057;51.024;7.540;2022-10-22T10:58:10;17.20;99.90
15455;DHT22;21057;51.024;7.540;2022-10-22T11:00:56;17.20;99.90
15455;DHT22;21057;51.024;7.540;2022-10-22T11:06:18;17.20;99.90
15455;DHT22;21057;51.024;7.540;2022-10-22T11:08:51;17.30;99.90
15455;DHT22;21057;51.024;7.540;2022-10-22T11:11:22;17.30;99.90
15455;DHT22;21057;51.024;7.540;2022-10-22T11:13:55;17.30;99.90
15455;DHT22;21057;51.024;7.540;2022-10-22T11:16:29;17.30;99.90
15455;DHT22;21057;51.024;7.540;2022-10-22T11:19:02;17.40;99.90
15455;DHT22;21057;51.024;7.540;2022-10-22T11:21:33;17.60;99.90
15455;DHT22;21057;51.024;7.540;2022-10-22T11:24:13;17.80;99.90
15455;DHT22;21057;51.024;7.540;2022-10-22T11:26:47;17.80;99.90
15455;DHT22;21057;51.024;7.540;2022-10-22T11:29:17;17.90;99.90
15455;DHT22;21057;51.024;7.540;2022-10-22T11:31:46;17.80;99.90
15455;DHT22;21057;51.024;7.540;2022-10-22T11:34:17;17.60;99.90
15455;DHT22;21057;51.024;7.540;2022-10-22T11:36:45;17.50;99.90
15455;DHT22;21057;51.024;7.540;2022-10-22T11:39:33;17.30;99.90
15455;DHT22;21057;51.024;7.540;2022-10-22T11:42:03;17.30;99.90
15455;DHT22;21057;51.024;7.540;2022-10-22T11:44:45;17.10;99.90
15455;DHT22;21057;51.024;7.540;2022-10-22T11:47:17;17.10;99.90
15455;DHT22;21057;51.024;7.540;2022-10-22T11:49:53;17.00;99.90
15455;DHT22;21057;51.024;7.540;2022-10-22T11:52:23;16.90;99.90
15455;DHT22;21057;51.024;7.540;2022-10-22T11:54:55;16.90;99.90
15455;DHT22;21057;51.024;7.540;2022-10-22T11:57:27;16.70;99.90
15455;DHT22;21057;51.024;7.540;2022-10-22T11:59:58;16.60;99.90
15455;DHT22;21057;51.024;7.540;2022-10-22T12:02:37;16.50;99.90
15455;DHT22;21057;51.024;7.540;2022-10-22T12:08:20;16.70;99.90
15455;DHT22;21057;51.024;7.540;2022-10-22T12:11:03;16.90;99.90
15455;DHT22;21057;51.024;7.540;2022-10-22T12:13:32;17.10;99.90
15455;DHT22;21057;51.024;7.540;2022-10-22T12:16:02;17.30;99.90
15455;DHT22;21057;51.024;7.540;2022-10-22T12:18:38;17.30;99.90
15455;DHT22;21057;51.024;7.540;2022-10-22T12:21:05;17.10;99.90
15455;DHT22;21057;51.024;7.540;2022-10-22T12:23:33;17.30;99.90
15455;DHT22;21057;51.024;7.540;2022-10-22T12:26:04;17.40;99.90
15455;DHT22;21057;51.024;7.540;2022-10-22T12:28:37;17.50;99.90
15455;DHT22;21057;51.024;7.540;2022-10-22T12:31:05;17.60;99.90
15455;DHT22;21057;51.024;7.540;2022-10-22T12:33:32;17.60;99.90
15455;DHT22;21057;51.024;7.540;2022-10-22T12:35:59;17.60;99.90
15455;DHT22;21057;51.024;7.540;2022-10-22T12:38:28;17.60;99.90
15455;DHT22;21057;51.024;7.540;2022-10-22T12:40:56;17.50;99.90
15455;DHT22;21057;51.024;7.540;2022-10-22T12:43:26;17.50;99.90
15455;DHT22;21057;51.024;7.540;2022-10-22T12:45:54;17.40;99.90
15455;DHT22;21057;51.024;7.540;2022-10-22T12:48:24;17.40;99.90
15455;DHT22;21057;51.024;7.540;2022-10-22T12:50:54;17.60;99.90
15455;DHT22;21057;51.024;7.540;2022-10-22T12:53:23;17.70;99.90
15455;DHT22;21057;51.024;7.540;2022-10-22T12:55:54;17.70;99.90
15455;DHT22;21057;51.024;7.540;2022-10-22T12:58:26;17.70;99.90
15455;DHT22;21057;51.024;7.540;2022-10-22T13:00:55;17.90;99.90
15455;DHT22;21057;51.024;7.540;2022-10-22T13:03:28;18.00;99.90
15455;DHT22;21057;51.024;7.540;2022-10-22T13:05:55;18.20;99.90
15455;DHT22;21057;51.024;7.540;2022-10-22T13:08:26;18.10;99.90
15455;DHT22;21057;51.024;7.540;2022-10-22T13:10:54;18.00;99.90
15455;DHT22;21057;51.024;7.540;2022-10-22T13:13:39;18.10;99.90
15455;DHT22;21057;51.024;7.540;2022-10-22T13:16:15;18.20;99.90
15455;DHT22;21057;51.024;7.540;2022-10-22T13:18:42;18.40;99.90
15455;DHT22;21057;51.024;7.540;2022-10-22T13:21:22;18.40;99.90
15455;DHT22;21057;51.024;7.540;2022-10-22T13:23:52;18.30;99.90
15455;DHT22;21057;51.024;7.540;2022-10-22T13:26:20;18.50;99.90
15455;DHT22;21057;51.024;7.540;2022-10-22T13:28:52;18.60;99.90
15455;DHT22;21057;51.024;7.540;2022-10-22T13:31:22;19.10;99.90
15455;DHT22;21057;51.024;7.540;2022-10-22T13:33:52;19.70;99.90
15455;DHT22;21057;51.024;7.540;2022-10-22T13:36:21;20.10;99.90
15455;DHT22;21057;51.024;7.540;2022-10-22T13:38:48;20.30;99.90
15455;DHT22;21057;51.024;7.540;2022-10-22T13:41:19;20.50;99.90
15455;DHT22;21057;51.024;7.540;2022-10-22T13:43:46;20.20;99.90
15455;DHT22;21057;51.024;7.540;2022-10-22T13:46:14;20.10;99.90
15455;DHT22;21057;51.024;7.540;2022-10-22T13:48:42;19.80;99.90
15455;DHT22;21057;51.024;7.540;2022-10-22T13:51:13;19.60;99.90
15455;DHT22;21057;51.024;7.540;2022-10-22T13:53:41;19.40;99.90
15455;DHT22;21057;51.024;7.540;2022-10-22T13:56:12;19.20;99.90
15455;DHT22;21057;51.024;7.540;2022-10-22T13:58:40;19.10;99.90
15455;DHT22;21057;51.024;7.540;2022-10-22T14:01:13;19.50;99.90
15455;DHT22;21057;51.024;7.540;2022-10-22T14:03:45;19.90;99.90
15455;DHT22;21057;51.024;7.540;2022-10-22T14:06:12;20.40;99.90
15455;DHT22;21057;51.024;7.540;2022-10-22T14:08:41;20.90;99.90
15455;DHT22;21057;51.024;7.540;2022-10-22T14:11:10;20.90;99.90
15455;DHT22;21057;51.024;7.540;2022-10-22T14:13:37;20.70;99.90
15455;DHT22;21057;51.024;7.540;2022-10-22T14:16:05;20.10;99.90
15455;DHT22;21057;51.024;7.540;2022-10-22T14:18:33;19.80;99.90
15455;DHT22;21057;51.024;7.540;2022-10-22T14:21:03;19.70;99.90
15455;DHT22;21057;51.024;7.540;2022-10-22T14:23:33;19.50;99.90
15455;DHT22;21057;51.024;7.540;2022-10-22T14:26:02;19.40;99.90
15455;DHT22;21057;51.024;7.540;2022-10-22T14:28:31;19.30;99.90
15455;DHT22;21057;51.024;7.540;2022-10-22T14:30:58;19.20;99.90
15455;DHT22;21057;51.024;7.540;2022-10-22T14:33:27;19.20;99.90
15455;DHT22;21057;51.024;7.540;2022-10-22T14:35:54;19.10;99.90
15455;DHT22;21057;51.024;7.540;2022-10-22T14:38:23;19.00;99.90
15455;DHT22;21057;51.024;7.540;2022-10-22T14:40:50;18.70;99.90
15455;DHT22;21057;51.024;7.540;2022-10-22T14:43:20;18.40;99.90
15455;DHT22;21057;51.024;7.540;2022-10-22T14:45:47;18.40;99.90
15455;DHT22;21057;51.024;7.540;2022-10-22T14:48:14;18.40;99.90
15455;DHT22;21057;51.024;7.540;2022-10-22T14:50:41;18.50;99.90
15455;DHT22;21057;51.024;7.540;2022-10-22T14:53:09;18.60;99.90
15455;DHT22;21057;51.024;7.540;2022-10-22T14:55:37;18.50;99.90
15455;DHT22;21057;51.024;7.540;2022-10-22T14:58:04;18.40;99.90
15455;DHT22;21057;51.024;7.540;2022-10-22T15:00:31;18.30;99.90
15455;DHT22;21057;51.024;7.540;2022-10-22T15:02:59;18.30;99.90
15455;DHT22;21057;51.024;7.540;2022-10-22T15:05:25;18.40;99.90
15455;DHT22;21057;51.024;7.540;2022-10-22T15:07:52;18.30;99.90
15455;DHT22;21057;51.024;7.540;2022-10-22T15:10:19;18.20;99.90
15455;DHT22;21057;51.024;7.540;2022-10-22T15:12:47;18.20;99.90
15455;DHT22;21057;51.024;7.540;2022-10-22T15:15:14;18.10;99.90
15455;DHT22;21057;51.024;7.540;2022-10-22T15:17:41;18.10;99.90
15455;DHT22;21057;51.024;7.540;2022-10-22T15:20:08;18.10;99.90
15455;DHT22;21057;51.024;7.540;2022-10-22T15:22:35;18.10;99.90
15455;DHT22;21057;51.024;7.540;2022-10-22T15:25:04;18.10;99.90
15455;DHT22;21057;51.024;7.540;2022-10-22T15:27:31;18.00;99.90
15455;DHT22;21057;51.024;7.540;2022-10-22T15:29:59;18.00;99.90
15455;DHT22;21057;51.024;7.540;2022-10-22T15:32:27;17.90;99.90
15455;DHT22;21057;51.024;7.540;2022-10-22T15:34:54;17.90;99.90
15455;DHT22;21057;51.024;7.540;2022-10-22T15:37:21;17.90;99.90
15455;DHT22;21057;51.024;7.540;2022-10-22T15:39:48;17.90;99.90
15455;DHT22;21057;51.024;7.540;2022-10-22T15:42:15;17.80;99.90
15455;DHT22;21057;51.024;7.540;2022-10-22T15:44:43;17.70;99.90
15455;DHT22;21057;51.024;7.540;2022-10-22T15:47:11;17.80;99.90
15455;DHT22;21057;51.024;7.540;2022-10-22T15:49:38;17.70;99.90
15455;DHT22;21057;51.024;7.540;2022-10-22T15:52:06;17.60;99.90